LFSL - Brive , Souillac,France,Corrèze Lot
Mise à jour: Fri, 19-Jan-2018 12:00 CET
Thunderstorm
Thunderstorm
 Wind from W
Vent: W 9 km/h
Température: 8°C
Température au Vent: 6°C
Point de Rosée: 7°C
Humidité: 93%
Barometre: 1019 hPa
Nuage: Thunderstorm
Visibilité: 10 km
2018/01/19 11:00 LFSL 191100Z AUTO 27005KT 240V310 9999 FEW010/// SCT038/// BKN054/// ///TCU 08/07 Q1019 TEMPO 4000 SHRA BKN008 SCT018TCU